Flugplatz Dorsten am Kanal (UL)

Hier findest Du alle Informationen zum Flugplatz Dorsten am Kanal (UL).

Informationen für Piloten zum Flugplatz Dorsten am Kanal

Hier findest Du alle relevanten Informationen, die Du als Pilot benötigst, um Dorsten am Kanal anzufliegen.

Flugplatz: Dorsten am Kanal ICAO-Code: UL Flugplatz
Frequenz Turm: 123.350 Mhz GAFOR Gebiet: 33
Frequenz Ground: 123.350 Mhz Mogas: nein
Platzrunde: S 1000 ft Landegebühr: -
Platzhöhe: Sunrise: 07:17 Uhr UTC
Pisten: 09/27 - 600 m x 30 m, GRAS Sunset: 15:26 Uhr UTC

Flugwetter am Flugplatz Dorsten am Kanal

Die METAR Information stammen aus EDDL (45.12 km entfernt).

METAR Code:
2020/11/14 11:20
EDDL 141120Z 17011KT 9999 FEW030 15/10 Q1016 NOSIG

Flugschulen am Flugplatz Dorsten am Kanal

Am Flugplatz Dorsten am Kanal gibt es leider keine Flugschule.

Benachbarte Flugplätze und Flugschulen

Es gibt 16 weitere Flugplätze in einem Umkreis von 50 km um den Flugplatz Dorsten am Kanal.

Jetzt anmelden

Passwort vergessen

Umfrage Archiv

Wie viele Flugstunden seid Ihr in Eurer Pilotenausbildung geflogen?

31 - 40 Stunden
49.3 %
41 - 50 Stunden
23.9 %
exakt 30 Stunden
12.7 %
über 60 Stunden
8.5 %
51 - 60 Stunden
5.6 %
Stimmen: 71 | Diskussion
Anzeige: Roland Aircraft
Statistik Alle Mitglieder

Aktuell sind 38 Besucher online, davon 5 Mitglieder und 33 Gäste.


Mitglieder online:
slintes  Chris_EDNC  francop  hennes  trauntaler 

Anzeige: VFR Sprechfunk Simulator


Anzeige: Pocket FMS